Language: 


Des rapports , des résumés tant et plus, au choix de chacun....


Données statistiques de la station
Quotidien Rapport Janvier 16, 2018 Unités:  Métrique    Anglais   les deux
« Précédent Jour
Suivant Jour »
Quotidien Hebdomadaire Mensuel Annuel Actuel
  Haut: Bas: Moyen:
Température: -17.8 °C -15.6 °C -14.1 °C
Pt de rosée: -17.8 °C -17.8 °C -15.8 °C
Humidité: Humidity % 58 % 79 %
Vitesse du vent: 0 km/h 0 km/h 26.9 km/h
Rafales: 0 km/h - -
Vent:- - WSW
Pression: 0 hPa 33592.5 hPa -
Précipitation: 12.7 mm    
Historical Graphs
 
 
Données statistiques pour Janvier 16, 2018
Heure Température Point de rosée Pression Vent Vitesse du vent Refales Humidité Pluie (taux horaire)
-17.8 °C -17.8 °C 0 hPa Calm     Humidity % 0 mm
00:01 -13.8 °C -14.4 °C 33694.1 hPa West 22 km/h 41.7 km/h 90 % 0 mm
00:07 -13.8 °C -14.4 °C 33694.1 hPa WSW 26.7 km/h 37 km/h 90 % 0 mm
00:17 -13.9 °C -14.4 °C 33731.3 hPa West 20.3 km/h 33.2 km/h 90 % 0 mm
00:25 -13.9 °C -14.4 °C 33694.1 hPa WSW 27.2 km/h 33.6 km/h 91 % 0 mm
00:32 -13.9 °C -14.4 °C 33694.1 hPa WSW 15.6 km/h 33.2 km/h 91 % 0 mm
00:42 -13.9 °C -14.4 °C 33660.2 hPa WSW 20.3 km/h 31.4 km/h 92 % 0 mm
00:50 -13.9 °C -14.4 °C 33660.2 hPa West 33.6 km/h 40.7 km/h 91 % 0 mm
01:03 -13.7 °C -15 °C 33694.1 hPa WSW 24.8 km/h 45.9 km/h 85 % 0 mm
01:10 -13.8 °C -15.6 °C 33694.1 hPa WSW 26.2 km/h 40.7 km/h 82 % 0 mm
01:22 -13.9 °C -15.6 °C 33694.1 hPa West 31.4 km/h 39.4 km/h 82 % 0 mm
01:27 -13.8 °C -15.6 °C 33694.1 hPa WSW 19.6 km/h 39.4 km/h 83 % 0 mm
01:34 -13.7 °C -15 °C 33694.1 hPa West 50.5 km/h 51.5 km/h 84 % 0 mm
01:46 -13.7 °C -15 °C 33660.2 hPa WSW 27.7 km/h 59.5 km/h 86 % 0 mm
02:03 -13.8 °C -14.4 °C 33694.1 hPa WSW 32.3 km/h 42.2 km/h 89 % 0 mm
02:17 -13.8 °C -14.4 °C 33694.1 hPa WSW 32.3 km/h 43 km/h 91 % 0 mm
02:34 -14 °C -15 °C 33660.2 hPa WSW 27.2 km/h 39.9 km/h 90 % 0 mm
02:41 -14 °C -15 °C 33660.2 hPa WSW 31.9 km/h 44.1 km/h 90 % 0 mm
02:49 -14.1 °C -14.4 °C 33660.2 hPa WSW 32.3 km/h 44.1 km/h 91 % 0 mm
02:59 -14 °C -14.4 °C 33660.2 hPa WSW 27.7 km/h 38.3 km/h 92 % 0 mm
03:06 -14 °C -14.4 °C 33660.2 hPa SW 26.7 km/h 39.9 km/h 92 % 0 mm
03:14 -14.1 °C -14.4 °C 33660.2 hPa WSW 19.2 km/h 37.5 km/h 92 % 0 mm
03:28 -14.2 °C -14.4 °C 33660.2 hPa WSW 32.3 km/h 33.2 km/h 93 % 0 mm
03:39 -14.2 °C -14.4 °C 33660.2 hPa WSW 31.9 km/h 33.2 km/h 94 % 0 mm
03:50 -14.2 °C -14.4 °C 33660.2 hPa WSW 30.7 km/h 36 km/h 95 % 0 mm
03:58 -14.2 °C -14.4 °C 33626.4 hPa WSW 26.7 km/h 33.6 km/h 95 % 0 mm
04:04 -14.1 °C -14.4 °C 33626.4 hPa West 20.3 km/h 37.5 km/h 96 % 0 mm
04:11 -14 °C -14.4 °C 33660.2 hPa WSW 20.3 km/h 33.6 km/h 96 % 0 mm
04:16 -14 °C -14.4 °C 33660.2 hPa WSW 22.5 km/h 33.6 km/h 96 % 0 mm
04:22 -14 °C -14.4 °C 33660.2 hPa WSW 24.3 km/h 34.1 km/h 96 % 0 mm
04:31 -13.9 °C -13.9 °C 33626.4 hPa WSW 19.2 km/h 33.6 km/h 96 % 0 mm
04:48 -13.9 °C -13.9 °C 33626.4 hPa WSW 22.5 km/h 28.5 km/h 96 % 0 mm
05:09 -13.9 °C -13.9 °C 33592.5 hPa WSW 19.6 km/h 22.5 km/h 96 % 7.62 mm
05:22 -13.9 °C -13.9 °C 33592.5 hPa WSW 27.2 km/h 45.9 km/h 96 % 7.62 mm
05:28 -13.9 °C -13.9 °C 33626.4 hPa West 39.4 km/h 45.9 km/h 96 % 7.62 mm
05:36 -13.9 °C -13.9 °C 33626.4 hPa West 28.5 km/h 45.1 km/h 96 % 7.62 mm
05:50 -13.9 °C -13.9 °C 33626.4 hPa WSW 27.7 km/h 39.9 km/h 96 % 7.62 mm
06:08 -13.9 °C -13.9 °C 33626.4 hPa West 27.7 km/h 34.8 km/h 96 % 0 mm
06:36 -13.9 °C -13.9 °C 33626.4 hPa WSW 27.2 km/h 43.5 km/h 96 % 0 mm
06:42 -13.9 °C -13.9 °C 33626.4 hPa West 45.1 km/h 45.1 km/h 96 % 0 mm
06:49 -13.9 °C -13.9 °C 33626.4 hPa West 20.9 km/h 45.1 km/h 96 % 0 mm
07:10 -13.9 °C -13.9 °C 33626.4 hPa WSW 34.8 km/h 45.9 km/h 96 % 0 mm
07:19 -13.5 °C -14.4 °C 33626.4 hPa WSW 31.9 km/h 45.1 km/h 86 % 0 mm
07:30 -13.6 °C -14.4 °C 33626.4 hPa WSW 27.2 km/h 44.1 km/h 85 % 0 mm
07:44 -13.7 °C -15 °C 33626.4 hPa West 28.5 km/h 49.7 km/h 84 % 0 mm
08:01 -13.7 °C -15 °C 33626.4 hPa West 24.8 km/h 41.2 km/h 83 % 0 mm
08:08 -13.8 °C -15 °C 33626.4 hPa WSW 16.9 km/h 36.5 km/h 83 % 0 mm
08:13 -13.8 °C -15.6 °C 33626.4 hPa West 37.5 km/h 38.3 km/h 83 % 0 mm
08:20 -13.8 °C -15 °C 33626.4 hPa West 28.5 km/h 42.2 km/h 84 % 0 mm
08:29 -13.8 °C -15 °C 33660.2 hPa West 34.1 km/h 44.1 km/h 83 % 0 mm
08:35 -13.8 °C -15.6 °C 33660.2 hPa WSW 22 km/h 39.9 km/h 83 % 0 mm
08:45 -13.9 °C -15.6 °C 33694.1 hPa West 28.5 km/h 40.7 km/h 83 % 0 mm
08:59 -14.1 °C -15.6 °C 33660.2 hPa WSW 26.7 km/h 33.6 km/h 84 % 0 mm
09:08 -14.1 °C -15.6 °C 33660.2 hPa West 14.5 km/h 33.2 km/h 84 % 0 mm
09:13 -14.1 °C -15.6 °C 33694.1 hPa West 22.5 km/h 39.9 km/h 84 % 0 mm
09:22 -14 °C -15 °C 33694.1 hPa WSW 27.7 km/h 39.9 km/h 85 % 0 mm
09:28 -14 °C -15 °C 33694.1 hPa West 20.9 km/h 39.9 km/h 85 % 0 mm
09:34 -14.1 °C -15 °C 33694.1 hPa WSW 31.4 km/h 37 km/h 85 % 0 mm
09:48 -13.9 °C -15 °C 33694.1 hPa West 33.6 km/h 44.6 km/h 84 % 0 mm
09:57 -13.8 °C -15.6 °C 33694.1 hPa WSW 33.6 km/h 38.3 km/h 80 % 0 mm
10:09 -13.8 °C -16.1 °C 33694.1 hPa WSW 44.6 km/h 45.9 km/h 78 % 0 mm
10:14 -13.8 °C -16.1 °C 33694.1 hPa West 36.5 km/h 66.6 km/h 76 % 0 mm
10:26 -13.8 °C -16.1 °C 33731.3 hPa WSW 27.7 km/h 51.5 km/h 76 % 0 mm
10:31 -13.9 °C -16.1 °C 33731.3 hPa West 26.2 km/h 45.1 km/h 76 % 0 mm
10:36 -13.9 °C -16.1 °C 33731.3 hPa WNW 33.6 km/h 41.2 km/h 76 % 0 mm
10:43 -13.8 °C -16.1 °C 33694.1 hPa West 30.7 km/h 45.9 km/h 75 % 0 mm
10:51 -13.8 °C -16.1 °C 33694.1 hPa WSW 16.3 km/h 46.8 km/h 75 % 0 mm
10:59 -13.7 °C -16.1 °C 33731.3 hPa West 25.4 km/h 48.1 km/h 75 % 0 mm
11:12 -13.7 °C -16.1 °C 33731.3 hPa SSW 26.2 km/h 44.1 km/h 73 % 0 mm
11:20 -13.7 °C -16.1 °C 33731.3 hPa WSW 26.7 km/h 51.5 km/h 72 % 0 mm
11:29 -13.7 °C -16.1 °C 33751.6 hPa West 27.7 km/h 48.6 km/h 72 % 0 mm
11:39 -13.7 °C -16.1 °C 33751.6 hPa West 19.6 km/h 43 km/h 72 % 0 mm
11:52 -13.7 °C -16.1 °C 33751.6 hPa West 9.8 km/h 27.7 km/h 72 % 0 mm
11:57 -13.7 °C -16.1 °C 33751.6 hPa West 19.2 km/h 32.3 km/h 72 % 0 mm
12:07 -12.9 °C -15.6 °C 33751.6 hPa WSW 18.7 km/h 27.7 km/h 69 % 0 mm
12:14 -12.9 °C -15.6 °C 33751.6 hPa WSW 18.7 km/h 27.7 km/h 69 % 0 mm
12:31 -13.1 °C -17.2 °C 33751.6 hPa WSW 11.1 km/h 45.9 km/h 58 % 0 mm
12:40 -13.1 °C -17.2 °C 33751.6 hPa West 44.6 km/h 44.6 km/h 58 % 0 mm
12:47 -13.1 °C -17.2 °C 33751.6 hPa West 71.8 km/h 71.8 km/h 58 % 0 mm
13:04 -13.1 °C -17.2 °C 33751.6 hPa WSW 15.6 km/h 69.4 km/h 58 % 0 mm
13:15 -13.1 °C -17.2 °C 33731.3 hPa West 29 km/h 57.9 km/h 58 % 0 mm
13:21 -13.1 °C -17.2 °C 33731.3 hPa WNW 34.8 km/h 49.2 km/h 58 % 0 mm
13:31 -13.4 °C -16.7 °C 33751.6 hPa West 44.6 km/h 44.6 km/h 66 % 0 mm
13:47 -13.4 °C -16.7 °C 33731.3 hPa West 33.2 km/h 54.4 km/h 66 % 0 mm
13:54 -13.4 °C -16.7 °C 33731.3 hPa WSW 40.7 km/h 63.2 km/h 66 % 0 mm
14:02 -13.2 °C -16.1 °C 33731.3 hPa West 31.9 km/h 65 km/h 65 % 0 mm
14:10 -13.3 °C -16.1 °C 33731.3 hPa WSW 20.3 km/h 57.9 km/h 67 % 0 mm
14:22 -13.1 °C -16.1 °C 33731.3 hPa WSW 33.6 km/h 68.9 km/h 65 % 0 mm
14:32 -13.1 °C -16.1 °C 33694.1 hPa West 28.5 km/h 62 km/h 67 % 0 mm
14:39 -13.1 °C -16.1 °C 33694.1 hPa West 40.7 km/h 53.9 km/h 65 % 0 mm
14:49 -13.1 °C -16.1 °C 33694.1 hPa West 51.5 km/h 65 km/h 67 % 0 mm
15:09 -13.1 °C -16.7 °C 33694.1 hPa West 34.8 km/h 66.6 km/h 63 % 0 mm
15:21 -13.1 °C -16.1 °C 33694.1 hPa West 20.9 km/h 45.9 km/h 65 % 0 mm
15:27 -13.1 °C -16.1 °C 33694.1 hPa West 53.3 km/h 53.3 km/h 64 % 0 mm
15:35 -13.1 °C -16.7 °C 33694.1 hPa West 36.5 km/h 59.1 km/h 63 % 0 mm
15:43 -13.3 °C -16.7 °C 33694.1 hPa West 34.1 km/h 59.1 km/h 64 % 0 mm
16:09 -13.6 °C -17.8 °C 33731.3 hPa West 33.6 km/h 73.5 km/h 59 % 0 mm
16:14 -13.7 °C -17.8 °C 33731.3 hPa West 18.7 km/h 45.1 km/h 61 % 0 mm
16:27 -13.8 °C -17.2 °C 33731.3 hPa WSW 28.5 km/h 39.9 km/h 64 % 0 mm
16:36 -14.1 °C -17.2 °C 33731.3 hPa WSW 22.5 km/h 41.7 km/h 67 % 0 mm
16:56 -14.3 °C -16.7 °C 33694.1 hPa West 27.2 km/h 37 km/h 72 % 0 mm
17:12 -14.3 °C -16.7 °C 33731.3 hPa West 32.3 km/h 38.3 km/h 73 % 0 mm
17:19 -14.3 °C -16.7 °C 33731.3 hPa WNW 15 km/h 44.6 km/h 72 % 0 mm
17:33 -14.3 °C -17.2 °C 33731.3 hPa WSW 33.2 km/h 38.3 km/h 70 % 0 mm
17:47 -14.4 °C -17.2 °C 33694.1 hPa West 27.7 km/h 40.7 km/h 70 % 0 mm
17:54 -14.4 °C -17.2 °C 33694.1 hPa West 24.8 km/h 40.7 km/h 70 % 0 mm
18:10 -14.4 °C -17.2 °C 33694.1 hPa WSW 32.3 km/h 39.9 km/h 71 % 0 mm
18:16 -14.4 °C -17.2 °C 33694.1 hPa WSW 26.2 km/h 45.1 km/h 71 % 0 mm
18:23 -14.5 °C -17.2 °C 33694.1 hPa West 26.7 km/h 51 km/h 71 % 0 mm
18:38 -14.5 °C -17.2 °C 33660.2 hPa WSW 26.7 km/h 45.1 km/h 70 % 0 mm
18:45 -14.5 °C -17.2 °C 33660.2 hPa West 26.2 km/h 44.1 km/h 70 % 0 mm
18:51 -14.5 °C -17.2 °C 33660.2 hPa WSW 28.5 km/h 34.1 km/h 70 % 0 mm
18:58 -14.6 °C -17.2 °C 33694.1 hPa West 20.3 km/h 34.1 km/h 71 % 0 mm
19:03 -14.6 °C -17.2 °C 33694.1 hPa West 22 km/h 31.4 km/h 71 % 0 mm
19:09 -14.5 °C -17.2 °C 33694.1 hPa WSW 26.7 km/h 34.8 km/h 71 % 0 mm
19:22 -14.6 °C -16.7 °C 33694.1 hPa WSW 24.8 km/h 28.5 km/h 72 % 0 mm
19:28 -14.6 °C -16.7 °C 33694.1 hPa West 22.5 km/h 33.6 km/h 73 % 0 mm
19:34 -14.6 °C -16.7 °C 33694.1 hPa WSW 25.4 km/h 33.6 km/h 73 % 0 mm
19:40 -14.6 °C -16.7 °C 33694.1 hPa West 20.9 km/h 33.2 km/h 73 % 0 mm
19:45 -14.6 °C -16.7 °C 33694.1 hPa WSW 15.6 km/h 29 km/h 74 % 0 mm
19:50 -14.7 °C -16.7 °C 33694.1 hPa WSW 14.5 km/h 22.5 km/h 74 % 0 mm
19:57 -14.7 °C -16.7 °C 33694.1 hPa WSW 15.6 km/h 20.3 km/h 75 % 0 mm
20:16 -14.6 °C -16.7 °C 33694.1 hPa WSW 31.9 km/h 42.2 km/h 77 % 0 mm
20:28 -14.7 °C -16.7 °C 33694.1 hPa WSW 18.7 km/h 29 km/h 78 % 0 mm
20:34 -14.7 °C -16.7 °C 33694.1 hPa WSW 35.2 km/h 35.2 km/h 78 % 0 mm
20:41 -14.8 °C -16.7 °C 33660.2 hPa WSW 27.2 km/h 35.2 km/h 78 % 0 mm
20:47 -14.8 °C -16.7 °C 33660.2 hPa WSW 27.2 km/h 33.6 km/h 78 % 0 mm
20:52 -14.8 °C -16.7 °C 33660.2 hPa WSW 27.7 km/h 39.4 km/h 78 % 0 mm
21:04 -14.7 °C -16.1 °C 33694.1 hPa WSW 22 km/h 41.7 km/h 79 % 0 mm
21:12 -14.7 °C -16.1 °C 33694.1 hPa WSW 20.3 km/h 33.6 km/h 80 % 0 mm
21:24 -14.7 °C -16.1 °C 33694.1 hPa West 43.5 km/h 55.2 km/h 84 % 0 mm
21:37 -14.7 °C -16.1 °C 33660.2 hPa WSW 19.6 km/h 61.3 km/h 84 % 0 mm
21:45 -14.7 °C -16.1 °C 33694.1 hPa WSW 22.5 km/h 39.4 km/h 84 % 0 mm
21:56 -14.7 °C -16.1 °C 33694.1 hPa WSW 22.5 km/h 34.1 km/h 84 % 7.62 mm
22:01 -14.7 °C -16.1 °C 33694.1 hPa West 15.6 km/h 33.6 km/h 84 % 7.62 mm
22:07 -14.7 °C -16.1 °C 33694.1 hPa Calm   20.3 km/h 84 % 7.62 mm
22:21 -14.7 °C -16.1 °C 33660.2 hPa SW 14.5 km/h 19.6 km/h 84 % 7.62 mm
22:35 -15.6 °C -16.1 °C 33660.2 hPa SSW 16.9 km/h 20.3 km/h 90 % 7.62 mm
22:48 -15.6 °C -16.1 °C 33660.2 hPa SW 22 km/h 27.2 km/h 90 % 7.62 mm
23:03 -15.6 °C -16.1 °C 33660.2 hPa SW 14 km/h 22.5 km/h 90 % 0 mm
23:10 -15.6 °C -16.1 °C 33660.2 hPa WSW 15.6 km/h 26.7 km/h 90 % 0 mm
23:15 -15.6 °C -16.1 °C 33660.2 hPa WSW 17.9 km/h 31.4 km/h 90 % 0 mm
23:27 -15.6 °C -16.1 °C 33660.2 hPa West 27.2 km/h 41.2 km/h 90 % 0 mm
23:32 -15.4 °C -15.6 °C 33660.2 hPa West 29 km/h 41.2 km/h 96 % 0 mm
23:41 -15.4 °C -16.1 °C 33660.2 hPa West 23 km/h 35.2 km/h 94 % 0 mm
23:55 -15.4 °C -16.1 °C 33660.2 hPa West 33.2 km/h 39.9 km/h 94 % 0 mm
Le Gheer Warneton
Courtoisie de Weather Underground - 1.5 mb

Mise a jour : 25/02/2018 14:56:11
Généré par Cumulus 1.9.4 (1099)